Terminal Aerodrome Forecast
Issued by NWS Boston, MA

Home | Current Version | Previous Version | Text Only | Print | Product List | Glossary On
Versions: 1 2 3 4 5 6 7 8 9 10 11 12 13 14 15 16 17 18 19 20 21 22
000
FTUS41 KBOX 171726
TAFBDL
TAF
KBDL 171726Z 1718/1824 VRB04KT P6SM BKN250
     FM180400 00000KT P6SM OVC050
     FM180600 00000KT P6SM -SHSN OVC025
     FM181200 00000KT P6SM OVC020
     FM181900 VRB03KT P6SM OVC050=

USA.gov is the U.S. government's official web portal to all federal, state and local government web resources and services.